sensor_id;sensor_type;location;lat;lon;timestamp;pressure;altitude;pressure_sealevel;temperature;humidity
10466;BME280;5280;42.600;23.556;2023-07-02T00:02:13;92805.34;;;18.34;100.00
10466;BME280;5280;42.600;23.556;2023-07-02T00:04:42;92748.28;;;18.04;100.00
10466;BME280;5280;42.600;23.556;2023-07-02T00:07:09;92798.38;;;18.47;100.00
10466;BME280;5280;42.600;23.556;2023-07-02T00:09:36;92807.84;;;18.50;100.00
10466;BME280;5280;42.600;23.556;2023-07-02T00:12:04;92791.81;;;18.50;100.00
10466;BME280;5280;42.600;23.556;2023-07-02T00:14:30;92803.66;;;18.56;100.00
10466;BME280;5280;42.600;23.556;2023-07-02T00:16:57;92799.66;;;18.52;100.00
10466;BME280;5280;42.600;23.556;2023-07-02T00:19:24;92782.31;;;18.47;100.00
10466;BME280;5280;42.600;23.556;2023-07-02T00:21:52;92788.59;;;18.55;100.00
10466;BME280;5280;42.600;23.556;2023-07-02T00:24:20;92798.31;;;18.56;100.00
10466;BME280;5280;42.600;23.556;2023-07-02T00:26:48;92782.19;;;18.41;100.00
10466;BME280;5280;42.600;23.556;2023-07-02T00:29:14;92792.47;;;18.52;100.00
10466;BME280;5280;42.600;23.556;2023-07-02T00:31:41;92754.44;;;18.27;100.00
10466;BME280;5280;42.600;23.556;2023-07-02T00:34:08;92783.94;;;18.48;100.00
10466;BME280;5280;42.600;23.556;2023-07-02T00:36:35;92765.69;;;18.37;100.00
10466;BME280;5280;42.600;23.556;2023-07-02T00:39:03;92787.78;;;18.54;100.00
10466;BME280;5280;42.600;23.556;2023-07-02T00:41:31;92799.31;;;18.55;100.00
10466;BME280;5280;42.600;23.556;2023-07-02T00:43:58;92786.63;;;18.48;100.00
10466;BME280;5280;42.600;23.556;2023-07-02T00:46:25;92765.59;;;18.31;100.00
10466;BME280;5280;42.600;23.556;2023-07-02T00:48:53;92767.72;;;18.35;100.00
10466;BME280;5280;42.600;23.556;2023-07-02T00:51:21;92788.66;;;18.46;100.00
10466;BME280;5280;42.600;23.556;2023-07-02T00:53:52;92758.28;;;18.25;100.00
10466;BME280;5280;42.600;23.556;2023-07-02T00:56:22;92791.13;;;18.48;100.00
10466;BME280;5280;42.600;23.556;2023-07-02T00:58:53;92764.56;;;18.32;100.00
10466;BME280;5280;42.600;23.556;2023-07-02T01:01:25;92788.66;;;18.32;100.00
10466;BME280;5280;42.600;23.556;2023-07-02T01:03:56;92781.19;;;18.27;100.00
10466;BME280;5280;42.600;23.556;2023-07-02T01:06:25;92789.81;;;18.29;100.00
10466;BME280;5280;42.600;23.556;2023-07-02T01:08:54;92791.38;;;18.24;100.00
10466;BME280;5280;42.600;23.556;2023-07-02T01:11:26;92777.25;;;18.15;100.00
10466;BME280;5280;42.600;23.556;2023-07-02T01:13:56;92789.63;;;18.16;100.00
10466;BME280;5280;42.600;23.556;2023-07-02T01:16:25;92792.19;;;18.10;100.00
10466;BME280;5280;42.600;23.556;2023-07-02T01:18:53;92802.72;;;18.11;100.00
10466;BME280;5280;42.600;23.556;2023-07-02T01:21:23;92805.69;;;18.16;100.00
10466;BME280;5280;42.600;23.556;2023-07-02T01:23:50;92802.03;;;18.09;100.00
10466;BME280;5280;42.600;23.556;2023-07-02T01:26:20;92818.38;;;18.14;100.00
10466;BME280;5280;42.600;23.556;2023-07-02T01:28:47;92827.91;;;18.17;100.00
10466;BME280;5280;42.600;23.556;2023-07-02T01:31:16;92831.59;;;18.16;100.00
10466;BME280;5280;42.600;23.556;2023-07-02T01:33:43;92831.00;;;18.05;100.00
10466;BME280;5280;42.600;23.556;2023-07-02T01:36:12;92831.28;;;18.11;100.00
10466;BME280;5280;42.600;23.556;2023-07-02T01:38:41;92826.94;;;18.10;100.00
10466;BME280;5280;42.600;23.556;2023-07-02T01:41:08;92833.97;;;18.11;100.00
10466;BME280;5280;42.600;23.556;2023-07-02T01:43:34;92801.00;;;17.95;100.00
10466;BME280;5280;42.600;23.556;2023-07-02T01:46:01;92821.59;;;18.10;100.00
10466;BME280;5280;42.600;23.556;2023-07-02T01:48:28;92799.47;;;18.01;100.00
10466;BME280;5280;42.600;23.556;2023-07-02T01:50:55;92789.88;;;18.06;100.00
10466;BME280;5280;42.600;23.556;2023-07-02T01:53:21;92793.22;;;18.23;100.00
10466;BME280;5280;42.600;23.556;2023-07-02T01:55:49;92779.84;;;18.23;100.00
10466;BME280;5280;42.600;23.556;2023-07-02T01:58:16;92769.34;;;18.22;100.00
10466;BME280;5280;42.600;23.556;2023-07-02T02:00:43;92762.63;;;18.26;100.00
10466;BME280;5280;42.600;23.556;2023-07-02T02:03:10;92769.63;;;18.27;100.00
10466;BME280;5280;42.600;23.556;2023-07-02T02:05:36;92771.31;;;18.28;100.00
10466;BME280;5280;42.600;23.556;2023-07-02T02:08:03;92772.09;;;18.28;100.00
10466;BME280;5280;42.600;23.556;2023-07-02T02:10:30;92776.94;;;18.33;100.00
10466;BME280;5280;42.600;23.556;2023-07-02T02:12:58;92770.22;;;18.37;100.00
10466;BME280;5280;42.600;23.556;2023-07-02T02:15:25;92753.09;;;18.23;100.00
10466;BME280;5280;42.600;23.556;2023-07-02T02:17:51;92773.72;;;18.37;100.00
10466;BME280;5280;42.600;23.556;2023-07-02T02:20:18;92757.66;;;18.37;100.00
10466;BME280;5280;42.600;23.556;2023-07-02T02:22:45;92748.59;;;18.38;100.00
10466;BME280;5280;42.600;23.556;2023-07-02T02:25:12;92766.31;;;18.39;100.00
10466;BME280;5280;42.600;23.556;2023-07-02T02:27:39;92754.88;;;18.31;100.00
10466;BME280;5280;42.600;23.556;2023-07-02T02:30:08;92793.56;;;18.43;100.00
10466;BME280;5280;42.600;23.556;2023-07-02T02:32:35;92805.91;;;18.44;100.00
10466;BME280;5280;42.600;23.556;2023-07-02T02:35:03;92772.59;;;18.32;100.00
10466;BME280;5280;42.600;23.556;2023-07-02T02:37:30;92764.28;;;18.27;100.00
10466;BME280;5280;42.600;23.556;2023-07-02T02:39:57;92784.41;;;18.37;100.00
10466;BME280;5280;42.600;23.556;2023-07-02T02:42:25;92784.31;;;18.31;100.00
10466;BME280;5280;42.600;23.556;2023-07-02T02:44:52;92766.97;;;18.27;100.00
10466;BME280;5280;42.600;23.556;2023-07-02T02:47:20;92767.88;;;18.34;100.00
10466;BME280;5280;42.600;23.556;2023-07-02T02:49:47;92750.25;;;18.25;100.00
10466;BME280;5280;42.600;23.556;2023-07-02T02:52:14;92761.78;;;18.25;100.00
10466;BME280;5280;42.600;23.556;2023-07-02T02:54:41;92757.28;;;18.26;100.00
10466;BME280;5280;42.600;23.556;2023-07-02T02:57:08;92706.59;;;17.95;100.00
10466;BME280;5280;42.600;23.556;2023-07-02T02:59:35;92743.47;;;17.99;100.00
10466;BME280;5280;42.600;23.556;2023-07-02T03:02:02;92735.88;;;17.88;100.00
10466;BME280;5280;42.600;23.556;2023-07-02T03:04:30;92713.69;;;17.88;100.00
10466;BME280;5280;42.600;23.556;2023-07-02T03:06:57;92748.00;;;17.99;100.00
10466;BME280;5280;42.600;23.556;2023-07-02T03:09:24;92753.75;;;18.11;100.00
10466;BME280;5280;42.600;23.556;2023-07-02T03:11:52;92739.72;;;18.08;100.00
10466;BME280;5280;42.600;23.556;2023-07-02T03:14:19;92748.94;;;18.06;100.00
10466;BME280;5280;42.600;23.556;2023-07-02T03:16:46;92746.97;;;18.00;100.00
10466;BME280;5280;42.600;23.556;2023-07-02T03:19:13;92740.81;;;17.99;100.00
10466;BME280;5280;42.600;23.556;2023-07-02T03:21:43;92750.78;;;18.05;100.00
10466;BME280;5280;42.600;23.556;2023-07-02T03:24:10;92728.25;;;18.00;100.00
10466;BME280;5280;42.600;23.556;2023-07-02T03:26:38;92726.25;;;18.02;100.00
10466;BME280;5280;42.600;23.556;2023-07-02T03:29:05;92731.34;;;18.12;100.00
10466;BME280;5280;42.600;23.556;2023-07-02T03:31:32;92734.47;;;18.15;100.00
10466;BME280;5280;42.600;23.556;2023-07-02T03:34:01;92700.31;;;17.88;100.00
10466;BME280;5280;42.600;23.556;2023-07-02T03:36:28;92750.34;;;18.17;100.00
10466;BME280;5280;42.600;23.556;2023-07-02T03:38:56;92737.53;;;18.12;100.00
10466;BME280;5280;42.600;23.556;2023-07-02T03:41:23;92742.66;;;18.14;100.00
10466;BME280;5280;42.600;23.556;2023-07-02T03:43:50;92736.13;;;18.16;100.00
10466;BME280;5280;42.600;23.556;2023-07-02T03:46:17;92737.25;;;18.22;100.00
10466;BME280;5280;42.600;23.556;2023-07-02T03:48:44;92730.63;;;18.18;100.00
10466;BME280;5280;42.600;23.556;2023-07-02T03:51:13;92730.97;;;18.15;100.00
10466;BME280;5280;42.600;23.556;2023-07-02T03:53:40;92746.75;;;18.24;100.00
10466;BME280;5280;42.600;23.556;2023-07-02T03:56:09;92718.13;;;17.95;100.00
10466;BME280;5280;42.600;23.556;2023-07-02T03:58:36;92714.28;;;17.75;100.00
10466;BME280;5280;42.600;23.556;2023-07-02T04:01:02;92769.41;;;18.14;100.00
10466;BME280;5280;42.600;23.556;2023-07-02T04:03:29;92773.59;;;18.16;100.00
10466;BME280;5280;42.600;23.556;2023-07-02T04:05:56;92759.75;;;18.13;100.00
10466;BME280;5280;42.600;23.556;2023-07-02T04:08:23;92764.06;;;18.14;100.00
10466;BME280;5280;42.600;23.556;2023-07-02T04:10:51;92776.88;;;18.18;100.00
10466;BME280;5280;42.600;23.556;2023-07-02T04:13:19;92772.19;;;18.20;100.00
10466;BME280;5280;42.600;23.556;2023-07-02T04:15:47;92754.56;;;18.11;100.00
10466;BME280;5280;42.600;23.556;2023-07-02T04:18:14;92759.94;;;18.11;100.00
10466;BME280;5280;42.600;23.556;2023-07-02T04:20:55;92755.59;;;18.10;100.00
10466;BME280;5280;42.600;23.556;2023-07-02T04:23:22;92757.66;;;18.23;100.00
10466;BME280;5280;42.600;23.556;2023-07-02T04:25:49;92765.00;;;18.21;100.00
10466;BME280;5280;42.600;23.556;2023-07-02T04:28:16;92714.63;;;17.95;100.00
10466;BME280;5280;42.600;23.556;2023-07-02T04:30:45;92764.84;;;18.22;100.00
10466;BME280;5280;42.600;23.556;2023-07-02T04:33:15;92752.91;;;18.10;100.00
10466;BME280;5280;42.600;23.556;2023-07-02T04:35:43;92775.72;;;18.21;100.00
10466;BME280;5280;42.600;23.556;2023-07-02T04:38:10;92768.13;;;18.10;100.00
10466;BME280;5280;42.600;23.556;2023-07-02T04:40:38;92797.78;;;18.23;100.00
10466;BME280;5280;42.600;23.556;2023-07-02T04:43:07;92805.41;;;18.26;100.00
10466;BME280;5280;42.600;23.556;2023-07-02T04:45:36;92795.16;;;18.15;100.00
10466;BME280;5280;42.600;23.556;2023-07-02T04:48:04;92776.94;;;17.95;100.00
10466;BME280;5280;42.600;23.556;2023-07-02T04:50:31;92760.31;;;17.85;100.00
10466;BME280;5280;42.600;23.556;2023-07-02T04:52:58;92820.81;;;18.24;100.00
10466;BME280;5280;42.600;23.556;2023-07-02T04:55:25;92821.19;;;18.21;100.00
10466;BME280;5280;42.600;23.556;2023-07-02T04:57:51;92832.53;;;18.23;100.00
10466;BME280;5280;42.600;23.556;2023-07-02T05:00:19;92831.63;;;18.30;100.00
10466;BME280;5280;42.600;23.556;2023-07-02T05:02:47;92808.91;;;18.12;100.00
10466;BME280;5280;42.600;23.556;2023-07-02T05:05:16;92839.00;;;18.28;100.00
10466;BME280;5280;42.600;23.556;2023-07-02T05:07:43;92838.28;;;18.34;100.00
10466;BME280;5280;42.600;23.556;2023-07-02T05:10:09;92833.00;;;18.26;100.00
10466;BME280;5280;42.600;23.556;2023-07-02T05:12:36;92838.34;;;18.26;100.00
10466;BME280;5280;42.600;23.556;2023-07-02T05:15:04;92841.78;;;18.35;100.00
10466;BME280;5280;42.600;23.556;2023-07-02T05:17:31;92835.78;;;18.33;100.00
10466;BME280;5280;42.600;23.556;2023-07-02T05:20:00;92845.47;;;18.34;100.00
10466;BME280;5280;42.600;23.556;2023-07-02T05:22:28;92844.28;;;18.36;100.00
10466;BME280;5280;42.600;23.556;2023-07-02T05:24:55;92842.44;;;18.37;100.00
10466;BME280;5280;42.600;23.556;2023-07-02T05:27:22;92854.16;;;18.36;100.00
10466;BME280;5280;42.600;23.556;2023-07-02T05:29:48;92847.69;;;18.30;100.00
10466;BME280;5280;42.600;23.556;2023-07-02T05:32:15;92847.13;;;18.35;100.00
10466;BME280;5280;42.600;23.556;2023-07-02T05:34:42;92768.72;;;17.82;100.00
10466;BME280;5280;42.600;23.556;2023-07-02T05:37:11;92857.53;;;18.30;100.00
10466;BME280;5280;42.600;23.556;2023-07-02T05:39:42;92838.91;;;18.22;100.00
10466;BME280;5280;42.600;23.556;2023-07-02T05:42:09;92848.69;;;18.29;100.00
10466;BME280;5280;42.600;23.556;2023-07-02T05:44:36;92844.72;;;18.25;100.00
10466;BME280;5280;42.600;23.556;2023-07-02T05:47:03;92850.81;;;18.34;100.00
10466;BME280;5280;42.600;23.556;2023-07-02T05:49:30;92828.50;;;18.27;100.00
10466;BME280;5280;42.600;23.556;2023-07-02T05:51:57;92832.28;;;18.32;100.00
10466;BME280;5280;42.600;23.556;2023-07-02T05:54:24;92842.72;;;18.42;100.00
10466;BME280;5280;42.600;23.556;2023-07-02T05:56:53;92835.34;;;18.44;100.00
10466;BME280;5280;42.600;23.556;2023-07-02T05:59:20;92820.84;;;18.38;100.00
10466;BME280;5280;42.600;23.556;2023-07-02T06:01:47;92831.78;;;18.52;100.00
10466;BME280;5280;42.600;23.556;2023-07-02T06:04:14;92831.88;;;18.58;100.00
10466;BME280;5280;42.600;23.556;2023-07-02T06:06:41;92795.19;;;18.44;100.00
10466;BME280;5280;42.600;23.556;2023-07-02T06:09:08;92782.66;;;18.44;100.00
10466;BME280;5280;42.600;23.556;2023-07-02T06:11:36;92842.53;;;18.81;100.00
10466;BME280;5280;42.600;23.556;2023-07-02T06:14:07;92843.38;;;18.81;100.00
10466;BME280;5280;42.600;23.556;2023-07-02T06:16:34;92843.66;;;18.86;100.00
10466;BME280;5280;42.600;23.556;2023-07-02T06:19:01;92838.19;;;18.95;100.00
10466;BME280;5280;42.600;23.556;2023-07-02T06:21:28;92805.78;;;18.75;100.00
10466;BME280;5280;42.600;23.556;2023-07-02T06:23:56;92845.31;;;19.02;100.00
10466;BME280;5280;42.600;23.556;2023-07-02T06:26:26;92814.47;;;18.91;100.00
10466;BME280;5280;42.600;23.556;2023-07-02T06:29:09;92839.19;;;19.23;100.00
10466;BME280;5280;42.600;23.556;2023-07-02T06:31:37;92797.94;;;19.03;100.00
10466;BME280;5280;42.600;23.556;2023-07-02T06:34:19;92846.00;;;19.40;100.00
10466;BME280;5280;42.600;23.556;2023-07-02T06:37:15;92808.97;;;19.29;100.00
10466;BME280;5280;42.600;23.556;2023-07-02T06:39:45;92794.69;;;19.22;100.00
10466;BME280;5280;42.600;23.556;2023-07-02T06:42:52;92844.88;;;19.64;100.00
10466;BME280;5280;42.600;23.556;2023-07-02T06:45:22;92837.03;;;19.62;100.00
10466;BME280;5280;42.600;23.556;2023-07-02T06:47:49;92838.50;;;19.65;100.00
10466;BME280;5280;42.600;23.556;2023-07-02T06:50:26;92841.41;;;19.85;100.00
10466;BME280;5280;42.600;23.556;2023-07-02T06:52:55;92828.00;;;19.85;100.00
10466;BME280;5280;42.600;23.556;2023-07-02T06:55:22;92791.69;;;19.82;100.00
10466;BME280;5280;42.600;23.556;2023-07-02T06:58:05;92840.91;;;20.17;100.00
10466;BME280;5280;42.600;23.556;2023-07-02T07:04:01;92844.13;;;20.27;100.00
10466;BME280;5280;42.600;23.556;2023-07-02T07:06:29;92821.94;;;20.18;100.00
10466;BME280;5280;42.600;23.556;2023-07-02T07:08:57;92780.66;;;19.98;100.00
10466;BME280;5280;42.600;23.556;2023-07-02T07:11:24;92820.56;;;20.29;100.00
10466;BME280;5280;42.600;23.556;2023-07-02T07:13:51;92838.13;;;20.46;100.00
10466;BME280;5280;42.600;23.556;2023-07-02T07:16:21;92849.03;;;20.45;100.00
10466;BME280;5280;42.600;23.556;2023-07-02T07:21:47;92773.97;;;20.09;100.00
10466;BME280;5280;42.600;23.556;2023-07-02T07:24:14;92830.41;;;20.37;100.00
10466;BME280;5280;42.600;23.556;2023-07-02T07:26:41;92845.78;;;20.49;100.00
10466;BME280;5280;42.600;23.556;2023-07-02T07:29:08;92852.06;;;20.63;100.00
10466;BME280;5280;42.600;23.556;2023-07-02T07:31:35;92878.59;;;20.73;100.00
10466;BME280;5280;42.600;23.556;2023-07-02T07:34:02;92813.22;;;20.31;100.00
10466;BME280;5280;42.600;23.556;2023-07-02T07:36:29;92790.63;;;20.26;100.00
10466;BME280;5280;42.600;23.556;2023-07-02T07:38:58;92860.84;;;20.72;100.00
10466;BME280;5280;42.600;23.556;2023-07-02T07:41:25;92836.91;;;20.77;100.00
10466;BME280;5280;42.600;23.556;2023-07-02T07:43:52;92847.69;;;20.83;100.00
10466;BME280;5280;42.600;23.556;2023-07-02T07:46:19;92845.22;;;20.88;100.00
10466;BME280;5280;42.600;23.556;2023-07-02T07:48:46;92859.38;;;20.97;100.00
10466;BME280;5280;42.600;23.556;2023-07-02T07:51:12;92859.59;;;21.02;100.00
10466;BME280;5280;42.600;23.556;2023-07-02T07:53:40;92823.31;;;20.85;100.00
10466;BME280;5280;42.600;23.556;2023-07-02T07:56:08;92862.22;;;21.17;100.00
10466;BME280;5280;42.600;23.556;2023-07-02T07:58:37;92866.59;;;21.24;100.00
10466;BME280;5280;42.600;23.556;2023-07-02T08:01:04;92831.31;;;21.06;100.00
10466;BME280;5280;42.600;23.556;2023-07-02T08:03:33;92861.88;;;21.33;100.00
10466;BME280;5280;42.600;23.556;2023-07-02T08:06:00;92859.66;;;21.43;100.00
10466;BME280;5280;42.600;23.556;2023-07-02T08:08:27;92867.75;;;21.50;100.00
10466;BME280;5280;42.600;23.556;2023-07-02T08:10:54;92849.81;;;21.63;100.00
10466;BME280;5280;42.600;23.556;2023-07-02T08:13:26;92860.22;;;21.79;100.00
10466;BME280;5280;42.600;23.556;2023-07-02T08:16:30;92857.41;;;21.94;100.00
10466;BME280;5280;42.600;23.556;2023-07-02T08:18:58;92839.81;;;21.98;100.00
10466;BME280;5280;42.600;23.556;2023-07-02T08:21:30;92852.09;;;22.20;100.00
10466;BME280;5280;42.600;23.556;2023-07-02T08:26:26;92837.41;;;22.43;97.61
10466;BME280;5280;42.600;23.556;2023-07-02T08:29:06;92839.28;;;22.49;98.29
10466;BME280;5280;42.600;23.556;2023-07-02T08:31:36;92845.31;;;22.64;98.06
10466;BME280;5280;42.600;23.556;2023-07-02T08:34:03;92824.38;;;22.66;92.46
10466;BME280;5280;42.600;23.556;2023-07-02T08:36:32;92851.53;;;22.97;94.99
10466;BME280;5280;42.600;23.556;2023-07-02T08:38:59;92800.78;;;22.81;99.00
10466;BME280;5280;42.600;23.556;2023-07-02T08:41:27;92849.66;;;23.24;93.67
10466;BME280;5280;42.600;23.556;2023-07-02T08:43:55;92771.31;;;22.93;97.08
10466;BME280;5280;42.600;23.556;2023-07-02T08:46:24;92806.88;;;23.34;92.22
10466;BME280;5280;42.600;23.556;2023-07-02T08:48:53;92846.59;;;23.78;94.23
10466;BME280;5280;42.600;23.556;2023-07-02T08:51:20;92760.41;;;23.32;88.04
10466;BME280;5280;42.600;23.556;2023-07-02T08:53:48;92809.22;;;23.82;92.58
10466;BME280;5280;42.600;23.556;2023-07-02T08:56:23;92771.28;;;23.70;84.83
10466;BME280;5280;42.600;23.556;2023-07-02T08:58:54;92839.81;;;24.07;83.85
10466;BME280;5280;42.600;23.556;2023-07-02T09:01:23;92843.34;;;24.08;83.92
10466;BME280;5280;42.600;23.556;2023-07-02T09:03:51;92839.78;;;24.14;83.33
10466;BME280;5280;42.600;23.556;2023-07-02T09:06:18;92840.00;;;24.19;83.46
10466;BME280;5280;42.600;23.556;2023-07-02T09:08:47;92842.50;;;24.20;79.47
10466;BME280;5280;42.600;23.556;2023-07-02T09:11:15;92782.63;;;23.85;83.20
10466;BME280;5280;42.600;23.556;2023-07-02T09:13:45;92791.09;;;23.95;79.86
10466;BME280;5280;42.600;23.556;2023-07-02T09:16:24;92820.66;;;24.22;83.47
10466;BME280;5280;42.600;23.556;2023-07-02T09:18:56;92838.66;;;24.34;86.81
10466;BME280;5280;42.600;23.556;2023-07-02T09:21:25;92826.81;;;24.35;86.90
10466;BME280;5280;42.600;23.556;2023-07-02T09:23:53;92841.09;;;24.42;81.88
10466;BME280;5280;42.600;23.556;2023-07-02T09:26:31;92842.38;;;24.40;82.79
10466;BME280;5280;42.600;23.556;2023-07-02T09:29:01;92829.09;;;24.32;83.14
10466;BME280;5280;42.600;23.556;2023-07-02T09:31:29;92782.06;;;24.08;80.93
10466;BME280;5280;42.600;23.556;2023-07-02T09:34:01;92803.22;;;24.18;83.37
10466;BME280;5280;42.600;23.556;2023-07-02T09:36:28;92826.41;;;24.32;79.98
10466;BME280;5280;42.600;23.556;2023-07-02T09:38:55;92798.06;;;24.10;79.81
10466;BME280;5280;42.600;23.556;2023-07-02T09:41:22;92842.78;;;24.37;81.76
10466;BME280;5280;42.600;23.556;2023-07-02T09:43:49;92831.56;;;24.40;79.97
10466;BME280;5280;42.600;23.556;2023-07-02T09:46:17;92822.00;;;24.37;82.94
10466;BME280;5280;42.600;23.556;2023-07-02T09:48:45;92828.13;;;24.51;81.02
10466;BME280;5280;42.600;23.556;2023-07-02T09:51:13;92816.56;;;24.44;82.48
10466;BME280;5280;42.600;23.556;2023-07-02T09:53:40;92802.22;;;24.43;80.36
10466;BME280;5280;42.600;23.556;2023-07-02T09:56:08;92835.53;;;24.62;77.40
10466;BME280;5280;42.600;23.556;2023-07-02T09:58:35;92836.34;;;24.69;79.17
10466;BME280;5280;42.600;23.556;2023-07-02T10:01:02;92833.19;;;24.72;79.30
10466;BME280;5280;42.600;23.556;2023-07-02T10:03:30;92812.53;;;24.53;77.69
10466;BME280;5280;42.600;23.556;2023-07-02T10:06:05;92834.69;;;24.68;78.29
10466;BME280;5280;42.600;23.556;2023-07-02T10:08:33;92835.63;;;24.80;78.40
10466;BME280;5280;42.600;23.556;2023-07-02T10:11:09;92829.22;;;24.75;76.76
10466;BME280;5280;42.600;23.556;2023-07-02T10:13:37;92833.50;;;24.82;77.16
10466;BME280;5280;42.600;23.556;2023-07-02T10:16:05;92807.19;;;24.71;75.47
10466;BME280;5280;42.600;23.556;2023-07-02T10:18:32;92763.03;;;24.59;76.61
10466;BME280;5280;42.600;23.556;2023-07-02T10:20:59;92740.09;;;24.68;76.12
10466;BME280;5280;42.600;23.556;2023-07-02T10:23:35;92741.06;;;24.74;76.92
10466;BME280;5280;42.600;23.556;2023-07-02T10:26:16;92816.97;;;25.22;70.30
10466;BME280;5280;42.600;23.556;2023-07-02T10:28:55;92752.41;;;24.89;74.81
10466;BME280;5280;42.600;23.556;2023-07-02T10:31:22;92806.81;;;25.36;75.55
10466;BME280;5280;42.600;23.556;2023-07-02T10:33:49;92811.66;;;25.52;73.15
10466;BME280;5280;42.600;23.556;2023-07-02T10:36:20;92804.84;;;25.67;75.46
10466;BME280;5280;42.600;23.556;2023-07-02T10:38:50;92809.50;;;25.79;71.41
10466;BME280;5280;42.600;23.556;2023-07-02T10:41:24;92782.25;;;25.92;69.81
10466;BME280;5280;42.600;23.556;2023-07-02T10:43:52;92781.75;;;26.13;72.18
10466;BME280;5280;42.600;23.556;2023-07-02T10:46:19;92782.50;;;26.20;67.97
10466;BME280;5280;42.600;23.556;2023-07-02T10:48:53;92787.00;;;26.26;66.50
10466;BME280;5280;42.600;23.556;2023-07-02T10:51:20;92742.72;;;26.02;68.55
10466;BME280;5280;42.600;23.556;2023-07-02T10:53:57;92786.31;;;26.31;63.78
10466;BME280;5280;42.600;23.556;2023-07-02T10:56:25;92757.72;;;26.05;67.08
10466;BME280;5280;42.600;23.556;2023-07-02T10:58:53;92731.97;;;25.96;66.14
10466;BME280;5280;42.600;23.556;2023-07-02T11:01:25;92780.53;;;26.27;64.88
10466;BME280;5280;42.600;23.556;2023-07-02T11:03:58;92783.72;;;26.24;65.77
10466;BME280;5280;42.600;23.556;2023-07-02T11:06:26;92777.28;;;26.19;66.37
10466;BME280;5280;42.600;23.556;2023-07-02T11:08:54;92774.28;;;26.27;67.44
10466;BME280;5280;42.600;23.556;2023-07-02T11:11:23;92714.69;;;25.97;65.48
10466;BME280;5280;42.600;23.556;2023-07-02T11:13:51;92752.09;;;26.18;65.74
10466;BME280;5280;42.600;23.556;2023-07-02T11:16:21;92777.81;;;26.27;67.46
10466;BME280;5280;42.600;23.556;2023-07-02T11:18:51;92750.78;;;26.21;66.44
10466;BME280;5280;42.600;23.556;2023-07-02T11:21:18;92700.78;;;25.93;65.76
10466;BME280;5280;42.600;23.556;2023-07-02T11:23:45;92737.56;;;26.12;67.81
10466;BME280;5280;42.600;23.556;2023-07-02T11:26:12;92781.66;;;26.20;65.23
10466;BME280;5280;42.600;23.556;2023-07-02T11:28:49;92782.41;;;26.27;66.36
10466;BME280;5280;42.600;23.556;2023-07-02T11:31:26;92761.22;;;26.24;66.90
10466;BME280;5280;42.600;23.556;2023-07-02T11:33:54;92763.09;;;26.23;65.74
10466;BME280;5280;42.600;23.556;2023-07-02T11:36:23;92758.03;;;26.27;67.21
10466;BME280;5280;42.600;23.556;2023-07-02T11:38:51;92766.50;;;26.30;65.42
10466;BME280;5280;42.600;23.556;2023-07-02T11:41:19;92770.44;;;26.34;64.72
10466;BME280;5280;42.600;23.556;2023-07-02T11:43:47;92744.88;;;26.12;67.62
10466;BME280;5280;42.600;23.556;2023-07-02T11:46:14;92774.19;;;26.33;64.88
10466;BME280;5280;42.600;23.556;2023-07-02T11:48:41;92779.84;;;26.32;63.88
10466;BME280;5280;42.600;23.556;2023-07-02T11:51:08;92707.84;;;25.94;65.82
10466;BME280;5280;42.600;23.556;2023-07-02T11:53:36;92774.31;;;26.38;67.00
10466;BME280;5280;42.600;23.556;2023-07-02T11:56:03;92759.06;;;26.26;63.21
10466;BME280;5280;42.600;23.556;2023-07-02T11:58:32;92774.78;;;26.35;61.88
10466;BME280;5280;42.600;23.556;2023-07-02T12:01:00;92758.16;;;26.32;63.85
10466;BME280;5280;42.600;23.556;2023-07-02T12:03:27;92769.72;;;26.39;67.05
10466;BME280;5280;42.600;23.556;2023-07-02T12:05:55;92756.97;;;26.28;70.74
10466;BME280;5280;42.600;23.556;2023-07-02T12:08:22;92742.78;;;26.14;71.85
10466;BME280;5280;42.600;23.556;2023-07-02T12:10:49;92757.19;;;26.26;75.16
10466;BME280;5280;42.600;23.556;2023-07-02T12:13:16;92773.00;;;26.29;80.85
10466;BME280;5280;42.600;23.556;2023-07-02T12:15:43;92769.72;;;26.09;85.30
10466;BME280;5280;42.600;23.556;2023-07-02T12:18:11;92752.13;;;25.70;89.70
10466;BME280;5280;42.600;23.556;2023-07-02T12:20:39;92774.66;;;25.82;93.20
10466;BME280;5280;42.600;23.556;2023-07-02T12:23:06;92776.03;;;25.73;93.59
10466;BME280;5280;42.600;23.556;2023-07-02T12:25:33;92776.41;;;25.77;97.39
10466;BME280;5280;42.600;23.556;2023-07-02T12:27:59;92782.56;;;25.47;99.90
10466;BME280;5280;42.600;23.556;2023-07-02T12:30:26;92804.88;;;25.24;89.61
10466;BME280;5280;42.600;23.556;2023-07-02T12:32:53;92800.72;;;25.22;84.58
10466;BME280;5280;42.600;23.556;2023-07-02T12:35:21;92798.69;;;24.99;82.67
10466;BME280;5280;42.600;23.556;2023-07-02T12:37:51;92788.19;;;24.84;85.72
10466;BME280;5280;42.600;23.556;2023-07-02T12:40:18;92774.94;;;24.76;87.88
10466;BME280;5280;42.600;23.556;2023-07-02T12:42:46;92750.19;;;24.55;89.18
10466;BME280;5280;42.600;23.556;2023-07-02T12:45:13;92700.50;;;24.31;86.89
10466;BME280;5280;42.600;23.556;2023-07-02T12:47:41;92773.28;;;24.75;81.24
10466;BME280;5280;42.600;23.556;2023-07-02T12:50:11;92731.88;;;24.57;80.45
10466;BME280;5280;42.600;23.556;2023-07-02T12:52:42;92781.81;;;24.72;79.90
10466;BME280;5280;42.600;23.556;2023-07-02T12:55:09;92773.66;;;24.79;83.61
10466;BME280;5280;42.600;23.556;2023-07-02T12:57:35;92773.56;;;24.67;76.25
10466;BME280;5280;42.600;23.556;2023-07-02T13:00:03;92774.19;;;24.69;74.94
10466;BME280;5280;42.600;23.556;2023-07-02T13:02:31;92787.44;;;24.71;77.54
10466;BME280;5280;42.600;23.556;2023-07-02T13:04:58;92778.53;;;24.70;81.39
10466;BME280;5280;42.600;23.556;2023-07-02T13:07:25;92789.09;;;24.72;79.54
10466;BME280;5280;42.600;23.556;2023-07-02T13:09:56;92787.06;;;24.67;77.69